Stuart, OK (74570)

8:53 AM CST on December 29, 2014 (GMT -0600)
Horntown OK | Change Station
CLOSE
Current Station
Personal Weather Station
Location: Holdenville, OK
Elevation: 827 ft
Nearby Weather Stations
Active Advisory: Special Statement

Elev 827 ft 35.08 °N, 96.26 °W | Updated 1 minute ago

Partly Cloudy
Partly Cloudy
32.7 °F
Feels Like 33 °F
N
0.0
Wind Variable Wind from SE

Today
High -- | Low -- °F
--% Chance of Precip.
Yesterday
High -- | Low -- °F
Precip. -- in
7:31 AM 5:21 PM
First Quarter, 59% visible
Pressure 30.19 in
Visibility 10.0 miles
Clouds Few 7000 ft
Scattered Clouds 10000 ft
Scattered Clouds 12000 ft
Windchill 33 °F
Dew Point 32 °F
Humidity 99%
Rainfall 0.00 in
Snow Depth Not available.
UV 0 out of 12
Pollen 5.30 out of 12
Air Quality Not available.
Flu Activity Not available.
METAR KMLC 291353Z AUTO 04003KT 10SM FEW070 SCT100 SCT120 M01/M02 A3017 RMK AO2 SLP222 T10061022

More Conditions Fewer Conditions

Pressure 30.19 in
Visibility 10.0 miles
Clouds Few 7000 ft
Scattered Clouds 10000 ft
Scattered Clouds 12000 ft
Windchill 33 °F
Dew Point 32 °F
Humidity 99%
Rainfall 0.00 in
Snow Depth Not available.
UV 0 out of 12
Pollen 5.30 out of 12
Air Quality Not available.
Flu Activity Not available.
METAR KMLC 291353Z AUTO 04003KT 10SM FEW070 SCT100 SCT120 M01/M02 A3017 RMK AO2 SLP222 T10061022

More Conditions Fewer Conditions

10-Day Weather Forecast

Almanac

Astronomy

Dec. 29, 2014 Rise Set
Actual Time
Civil Twilight
Nautical Twilight
Astronomical Twilight
Moon
Length of Visible Light
Length of Day
Tomorrow will be .
, % of the Moon is Illuminated

Today's Extremes

State Highs State Lows

Community

WunderPhotos

Upload Photos

1,781,591 photos uploaded!

WunderBlogs® & News

Nearby

Air Quality

  Air Quality AQ Index Pollutant
Not available.

Snow Depth

Station Depth Elevation

Earthquake Activity

City Distance Mag. Time & Date
Minimum magnitude displayed is 2.5.

Coastal Water Temperatures

Place Temperature

Nearby Weather Stations